sensor_id;sensor_type;location;lat;lon;timestamp;pressure;altitude;pressure_sealevel;temperature;humidity
69257;BME280;56376;53.356;-1.748;2023-05-20T00:00:29;100880.88;;;11.48;100.00
69257;BME280;56376;53.356;-1.748;2023-05-20T00:02:55;100870.59;;;11.39;100.00
69257;BME280;56376;53.356;-1.748;2023-05-20T00:05:22;100874.16;;;11.35;100.00
69257;BME280;56376;53.356;-1.748;2023-05-20T00:07:47;100868.13;;;11.30;100.00
69257;BME280;56376;53.356;-1.748;2023-05-20T00:10:12;100872.59;;;11.25;100.00
69257;BME280;56376;53.356;-1.748;2023-05-20T00:12:38;100870.09;;;11.17;100.00
69257;BME280;56376;53.356;-1.748;2023-05-20T00:15:04;100873.66;;;11.13;100.00
69257;BME280;56376;53.356;-1.748;2023-05-20T00:17:30;100868.53;;;11.07;100.00
69257;BME280;56376;53.356;-1.748;2023-05-20T00:19:55;100868.59;;;11.04;100.00
69257;BME280;56376;53.356;-1.748;2023-05-20T00:22:21;100868.63;;;11.01;100.00
69257;BME280;56376;53.356;-1.748;2023-05-20T00:24:46;100865.22;;;10.97;100.00
69257;BME280;56376;53.356;-1.748;2023-05-20T00:27:11;100874.88;;;10.94;100.00
69257;BME280;56376;53.356;-1.748;2023-05-20T00:29:37;100866.25;;;10.89;100.00
69257;BME280;56376;53.356;-1.748;2023-05-20T00:32:02;100868.97;;;10.81;100.00
69257;BME280;56376;53.356;-1.748;2023-05-20T00:34:28;100865.53;;;10.77;100.00
69257;BME280;56376;53.356;-1.748;2023-05-20T00:36:53;100864.75;;;10.72;100.00
69257;BME280;56376;53.356;-1.748;2023-05-20T00:39:18;100866.56;;;10.69;100.00
69257;BME280;56376;53.356;-1.748;2023-05-20T00:41:44;100863.13;;;10.65;100.00
69257;BME280;56376;53.356;-1.748;2023-05-20T00:44:09;100866.63;;;10.63;100.00
69257;BME280;56376;53.356;-1.748;2023-05-20T00:46:35;100859.72;;;10.60;100.00
69257;BME280;56376;53.356;-1.748;2023-05-20T00:49:02;100865.84;;;10.59;100.00
69257;BME280;56376;53.356;-1.748;2023-05-20T00:51:28;100864.13;;;10.56;100.00
69257;BME280;56376;53.356;-1.748;2023-05-20T00:53:53;100872.88;;;10.54;100.00
69257;BME280;56376;53.356;-1.748;2023-05-20T00:56:19;100870.31;;;10.49;100.00
69257;BME280;56376;53.356;-1.748;2023-05-20T00:58:46;100869.53;;;10.44;100.00
69257;BME280;56376;53.356;-1.748;2023-05-20T01:01:11;100870.50;;;10.38;100.00
69257;BME280;56376;53.356;-1.748;2023-05-20T01:03:37;100869.69;;;10.33;100.00
69257;BME280;56376;53.356;-1.748;2023-05-20T01:06:02;100872.31;;;10.30;100.00
69257;BME280;56376;53.356;-1.748;2023-05-20T01:08:28;100885.41;;;10.27;100.00
69257;BME280;56376;53.356;-1.748;2023-05-20T01:11:01;100880.22;;;10.24;100.00
69257;BME280;56376;53.356;-1.748;2023-05-20T01:13:32;100877.66;;;10.21;100.00
69257;BME280;56376;53.356;-1.748;2023-05-20T01:16:00;100876.81;;;10.19;100.00
69257;BME280;56376;53.356;-1.748;2023-05-20T01:18:29;100875.94;;;10.18;100.00
69257;BME280;56376;53.356;-1.748;2023-05-20T01:20:56;100875.03;;;10.21;100.00
69257;BME280;56376;53.356;-1.748;2023-05-20T01:23:39;100881.13;;;10.22;100.00
69257;BME280;56376;53.356;-1.748;2023-05-20T01:26:05;100875.91;;;10.20;100.00
69257;BME280;56376;53.356;-1.748;2023-05-20T01:28:31;100878.56;;;10.17;100.00
69257;BME280;56376;53.356;-1.748;2023-05-20T01:30:59;100876.00;;;10.15;100.00
69257;BME280;56376;53.356;-1.748;2023-05-20T01:33:28;100882.06;;;10.16;100.00
69257;BME280;56376;53.356;-1.748;2023-05-20T01:35:54;100874.25;;;10.16;100.00
69257;BME280;56376;53.356;-1.748;2023-05-20T01:38:20;100883.75;;;10.20;100.00
69257;BME280;56376;53.356;-1.748;2023-05-20T01:40:48;100877.69;;;10.18;100.00
69257;BME280;56376;53.356;-1.748;2023-05-20T01:43:16;100880.25;;;10.21;100.00
69257;BME280;56376;53.356;-1.748;2023-05-20T01:45:43;100882.81;;;10.26;100.00
69257;BME280;56376;53.356;-1.748;2023-05-20T01:48:09;100872.31;;;10.30;100.00
69257;BME280;56376;53.356;-1.748;2023-05-20T01:50:36;100868.78;;;10.34;100.00
69257;BME280;56376;53.356;-1.748;2023-05-20T01:53:01;100867.88;;;10.37;100.00
69257;BME280;56376;53.356;-1.748;2023-05-20T01:55:27;100879.06;;;10.47;100.00
69257;BME280;56376;53.356;-1.748;2023-05-20T01:57:52;100877.31;;;10.47;100.00
69257;BME280;56376;53.356;-1.748;2023-05-20T02:00:18;100869.53;;;10.44;100.00
69257;BME280;56376;53.356;-1.748;2023-05-20T02:02:43;100874.72;;;10.46;100.00
69257;BME280;56376;53.356;-1.748;2023-05-20T02:05:09;100874.72;;;10.46;100.00
69257;BME280;56376;53.356;-1.748;2023-05-20T02:07:34;100872.94;;;10.48;100.00
69257;BME280;56376;53.356;-1.748;2023-05-20T02:09:59;100877.31;;;10.49;100.00
69257;BME280;56376;53.356;-1.748;2023-05-20T02:12:25;100864.25;;;10.46;100.00
69257;BME280;56376;53.356;-1.748;2023-05-20T02:14:50;100873.06;;;10.42;100.00
69257;BME280;56376;53.356;-1.748;2023-05-20T02:17:16;100875.72;;;10.38;100.00
69257;BME280;56376;53.356;-1.748;2023-05-20T02:19:45;100869.66;;;10.35;100.00
69257;BME280;56376;53.356;-1.748;2023-05-20T02:22:11;100874.03;;;10.33;100.00
69257;BME280;56376;53.356;-1.748;2023-05-20T02:24:36;100866.22;;;10.31;100.00
69257;BME280;56376;53.356;-1.748;2023-05-20T02:27:02;100871.50;;;10.28;100.00
69257;BME280;56376;53.356;-1.748;2023-05-20T02:29:29;100862.84;;;10.22;100.00
69257;BME280;56376;53.356;-1.748;2023-05-20T02:31:54;100874.25;;;10.16;100.00
69257;BME280;56376;53.356;-1.748;2023-05-20T02:34:20;100870.78;;;10.12;100.00
69257;BME280;56376;53.356;-1.748;2023-05-20T02:36:46;100863.06;;;10.06;100.00
69257;BME280;56376;53.356;-1.748;2023-05-20T02:39:11;100875.25;;;10.03;100.00
69257;BME280;56376;53.356;-1.748;2023-05-20T02:41:37;100879.72;;;9.96;100.00
69257;BME280;56376;53.356;-1.748;2023-05-20T02:44:03;100871.06;;;9.91;100.00
69257;BME280;56376;53.356;-1.748;2023-05-20T02:46:28;100868.50;;;9.86;100.00
69257;BME280;56376;53.356;-1.748;2023-05-20T02:48:53;100866.81;;;9.82;100.00
69257;BME280;56376;53.356;-1.748;2023-05-20T02:51:19;100868.63;;;9.77;100.00
69257;BME280;56376;53.356;-1.748;2023-05-20T02:53:45;100868.66;;;9.75;100.00
69257;BME280;56376;53.356;-1.748;2023-05-20T02:56:10;100872.16;;;9.71;100.00
69257;BME280;56376;53.356;-1.748;2023-05-20T02:58:35;100860.06;;;9.66;100.00
69257;BME280;56376;53.356;-1.748;2023-05-20T03:01:01;100858.34;;;9.62;100.00
69257;BME280;56376;53.356;-1.748;2023-05-20T03:03:27;100851.44;;;9.59;100.00
69257;BME280;56376;53.356;-1.748;2023-05-20T03:05:53;100853.22;;;9.56;100.00
69257;BME280;56376;53.356;-1.748;2023-05-20T03:08:20;100859.28;;;9.54;100.00
69257;BME280;56376;53.356;-1.748;2023-05-20T03:10:46;100855.00;;;9.50;100.00
69257;BME280;56376;53.356;-1.748;2023-05-20T03:13:12;100862.03;;;9.45;100.00
69257;BME280;56376;53.356;-1.748;2023-05-20T03:15:40;100869.03;;;9.37;100.00
69257;BME280;56376;53.356;-1.748;2023-05-20T03:18:05;100864.75;;;9.31;100.00
69257;BME280;56376;53.356;-1.748;2023-05-20T03:20:33;100861.31;;;9.26;100.00
69257;BME280;56376;53.356;-1.748;2023-05-20T03:23:01;100856.16;;;9.22;100.00
69257;BME280;56376;53.356;-1.748;2023-05-20T03:25:26;100866.59;;;9.23;100.00
69257;BME280;56376;53.356;-1.748;2023-05-20T03:27:52;100858.78;;;9.19;100.00
69257;BME280;56376;53.356;-1.748;2023-05-20T03:30:17;100857.09;;;9.15;100.00
69257;BME280;56376;53.356;-1.748;2023-05-20T03:32:43;100859.75;;;9.08;100.00
69257;BME280;56376;53.356;-1.748;2023-05-20T03:35:08;100855.47;;;9.01;100.00
69257;BME280;56376;53.356;-1.748;2023-05-20T03:37:34;100861.56;;;9.00;100.00
69257;BME280;56376;53.356;-1.748;2023-05-20T03:40:00;100856.41;;;8.97;100.00
69257;BME280;56376;53.356;-1.748;2023-05-20T03:42:26;100852.09;;;8.93;100.00
69257;BME280;56376;53.356;-1.748;2023-05-20T03:44:51;100847.75;;;8.91;100.00
69257;BME280;56376;53.356;-1.748;2023-05-20T03:47:16;100845.16;;;8.89;100.00
69257;BME280;56376;53.356;-1.748;2023-05-20T03:49:42;100848.66;;;8.88;100.00
69257;BME280;56376;53.356;-1.748;2023-05-20T03:52:07;100851.28;;;8.85;100.00
69257;BME280;56376;53.356;-1.748;2023-05-20T03:54:33;100860.00;;;8.82;100.00
69257;BME280;56376;53.356;-1.748;2023-05-20T03:57:00;100857.41;;;8.78;100.00
69257;BME280;56376;53.356;-1.748;2023-05-20T03:59:27;100855.69;;;8.74;100.00
69257;BME280;56376;53.356;-1.748;2023-05-20T04:01:52;100862.69;;;8.69;100.00
69257;BME280;56376;53.356;-1.748;2023-05-20T04:04:18;100854.91;;;8.65;100.00
69257;BME280;56376;53.356;-1.748;2023-05-20T04:06:43;100857.50;;;8.64;100.00
69257;BME280;56376;53.356;-1.748;2023-05-20T04:09:10;100860.13;;;8.62;100.00
69257;BME280;56376;53.356;-1.748;2023-05-20T04:11:35;100854.94;;;8.61;100.00
69257;BME280;56376;53.356;-1.748;2023-05-20T04:14:00;100853.25;;;8.55;100.00
69257;BME280;56376;53.356;-1.748;2023-05-20T04:16:26;100852.41;;;8.52;100.00
69257;BME280;56376;53.356;-1.748;2023-05-20T04:18:53;100854.16;;;8.48;100.00
69257;BME280;56376;53.356;-1.748;2023-05-20T04:21:18;100851.56;;;8.45;100.00
69257;BME280;56376;53.356;-1.748;2023-05-20T04:23:44;100854.19;;;8.45;100.00
69257;BME280;56376;53.356;-1.748;2023-05-20T04:26:09;100849.84;;;8.42;100.00
69257;BME280;56376;53.356;-1.748;2023-05-20T04:28:35;100855.91;;;8.43;100.00
69257;BME280;56376;53.356;-1.748;2023-05-20T04:31:02;100865.50;;;8.39;100.00
69257;BME280;56376;53.356;-1.748;2023-05-20T04:33:29;100862.88;;;8.36;100.00
69257;BME280;56376;53.356;-1.748;2023-05-20T04:35:55;100859.41;;;8.31;100.00
69257;BME280;56376;53.356;-1.748;2023-05-20T04:38:26;100864.63;;;8.31;100.00
69257;BME280;56376;53.356;-1.748;2023-05-20T04:40:55;100859.47;;;8.27;100.00
69257;BME280;56376;53.356;-1.748;2023-05-20T04:43:23;100856.88;;;8.25;100.00
69257;BME280;56376;53.356;-1.748;2023-05-20T04:45:49;100860.38;;;8.19;100.00
69257;BME280;56376;53.356;-1.748;2023-05-20T04:48:14;100855.16;;;8.18;100.00
69257;BME280;56376;53.356;-1.748;2023-05-20T04:50:39;100858.66;;;8.17;100.00
69257;BME280;56376;53.356;-1.748;2023-05-20T04:53:06;100847.41;;;8.12;100.00
69257;BME280;56376;53.356;-1.748;2023-05-20T04:55:31;100845.66;;;8.12;100.00
69257;BME280;56376;53.356;-1.748;2023-05-20T04:57:57;100859.53;;;8.11;100.00
69257;BME280;56376;53.356;-1.748;2023-05-20T05:00:22;100857.81;;;8.12;100.00
69257;BME280;56376;53.356;-1.748;2023-05-20T05:02:48;100859.53;;;8.11;100.00
69257;BME280;56376;53.356;-1.748;2023-05-20T05:05:13;100856.09;;;8.09;100.00
69257;BME280;56376;53.356;-1.748;2023-05-20T05:07:39;100850.00;;;8.09;100.00
69257;BME280;56376;53.356;-1.748;2023-05-20T05:10:04;100850.88;;;8.09;100.00
69257;BME280;56376;53.356;-1.748;2023-05-20T05:12:30;100854.34;;;8.08;100.00
69257;BME280;56376;53.356;-1.748;2023-05-20T05:14:56;100853.47;;;8.06;100.00
69257;BME280;56376;53.356;-1.748;2023-05-20T05:17:22;100850.88;;;8.06;100.00
69257;BME280;56376;53.356;-1.748;2023-05-20T05:19:48;100851.75;;;8.07;100.00
69257;BME280;56376;53.356;-1.748;2023-05-20T05:22:13;100854.38;;;8.07;100.00
69257;BME280;56376;53.356;-1.748;2023-05-20T05:24:38;100845.69;;;8.08;100.00
69257;BME280;56376;53.356;-1.748;2023-05-20T05:27:04;100840.44;;;8.12;100.00
69257;BME280;56376;53.356;-1.748;2023-05-20T05:29:29;100849.09;;;8.16;100.00
69257;BME280;56376;53.356;-1.748;2023-05-20T05:31:55;100843.00;;;8.20;100.00
69257;BME280;56376;53.356;-1.748;2023-05-20T05:34:20;100849.91;;;8.26;100.00
69257;BME280;56376;53.356;-1.748;2023-05-20T05:36:45;100850.75;;;8.31;100.00
69257;BME280;56376;53.356;-1.748;2023-05-20T05:39:11;100842.94;;;8.31;100.00
69257;BME280;56376;53.356;-1.748;2023-05-20T05:41:36;100855.06;;;8.33;100.00
69257;BME280;56376;53.356;-1.748;2023-05-20T05:44:03;100864.59;;;8.39;100.00
69257;BME280;56376;53.356;-1.748;2023-05-20T05:46:28;100853.34;;;8.40;100.00
69257;BME280;56376;53.356;-1.748;2023-05-20T05:48:54;100857.63;;;8.45;100.00
69257;BME280;56376;53.356;-1.748;2023-05-20T05:51:19;100854.13;;;8.51;100.00
69257;BME280;56376;53.356;-1.748;2023-05-20T05:53:45;100858.41;;;8.63;100.00
69257;BME280;56376;53.356;-1.748;2023-05-20T05:56:10;100858.34;;;8.69;100.00
69257;BME280;56376;53.356;-1.748;2023-05-20T05:58:36;100852.22;;;8.78;100.00
69257;BME280;56376;53.356;-1.748;2023-05-20T06:01:02;100859.06;;;8.88;100.00
69257;BME280;56376;53.356;-1.748;2023-05-20T06:03:27;100861.63;;;8.97;100.00
69257;BME280;56376;53.356;-1.748;2023-05-20T06:05:54;100854.59;;;9.04;100.00
69257;BME280;56376;53.356;-1.748;2023-05-20T06:08:19;100864.09;;;9.13;100.00
69257;BME280;56376;53.356;-1.748;2023-05-20T06:10:48;100855.28;;;9.21;100.00
69257;BME280;56376;53.356;-1.748;2023-05-20T06:13:15;100848.25;;;9.31;100.00
69257;BME280;56376;53.356;-1.748;2023-05-20T06:15:40;100848.16;;;9.40;100.00
69257;BME280;56376;53.356;-1.748;2023-05-20T06:18:06;100853.25;;;9.51;100.00
69257;BME280;56376;53.356;-1.748;2023-05-20T06:20:31;100847.06;;;9.61;100.00
69257;BME280;56376;53.356;-1.748;2023-05-20T06:22:56;100851.28;;;9.73;100.00
69257;BME280;56376;53.356;-1.748;2023-05-20T06:25:22;100843.31;;;9.85;100.00
69257;BME280;56376;53.356;-1.748;2023-05-20T06:27:48;100844.88;;;9.97;100.00
69257;BME280;56376;53.356;-1.748;2023-05-20T06:30:13;100836.91;;;10.09;100.00
69257;BME280;56376;53.356;-1.748;2023-05-20T06:32:38;100841.94;;;10.23;100.00
69257;BME280;56376;53.356;-1.748;2023-05-20T06:35:04;100839.22;;;10.32;100.00
69257;BME280;56376;53.356;-1.748;2023-05-20T06:37:30;100839.09;;;10.42;100.00
69257;BME280;56376;53.356;-1.748;2023-05-20T06:39:55;100835.53;;;10.47;100.00
69257;BME280;56376;53.356;-1.748;2023-05-20T06:42:20;100843.19;;;10.58;100.00
69257;BME280;56376;53.356;-1.748;2023-05-20T06:44:46;100843.91;;;10.69;100.00
69257;BME280;56376;53.356;-1.748;2023-05-20T06:47:15;100841.09;;;10.81;100.00
69257;BME280;56376;53.356;-1.748;2023-05-20T06:49:42;100839.19;;;10.90;100.00
69257;BME280;56376;53.356;-1.748;2023-05-20T06:52:07;100839.06;;;10.99;100.00
69257;BME280;56376;53.356;-1.748;2023-05-20T06:54:34;100835.41;;;11.06;100.00
69257;BME280;56376;53.356;-1.748;2023-05-20T06:57:05;100840.44;;;11.18;100.00
69257;BME280;56376;53.356;-1.748;2023-05-20T06:59:31;100842.03;;;11.27;100.00
69257;BME280;56376;53.356;-1.748;2023-05-20T07:02:00;100840.06;;;11.38;100.00
69257;BME280;56376;53.356;-1.748;2023-05-20T07:04:25;100829.44;;;11.49;100.00
69257;BME280;56376;53.356;-1.748;2023-05-20T07:06:50;100827.38;;;11.65;100.00
69257;BME280;56376;53.356;-1.748;2023-05-20T07:09:16;100815.81;;;11.75;100.00
69257;BME280;56376;53.356;-1.748;2023-05-20T07:11:41;100818.19;;;11.86;99.44
69257;BME280;56376;53.356;-1.748;2023-05-20T07:14:07;100822.44;;;11.95;97.04
69257;BME280;56376;53.356;-1.748;2023-05-20T07:16:33;100825.66;;;12.07;96.70
69257;BME280;56376;53.356;-1.748;2023-05-20T07:18:59;100828.00;;;12.18;94.81
69257;BME280;56376;53.356;-1.748;2023-05-20T07:21:27;100826.91;;;12.28;92.58
69257;BME280;56376;53.356;-1.748;2023-05-20T07:23:53;100833.69;;;12.37;91.54
69257;BME280;56376;53.356;-1.748;2023-05-20T07:26:18;100822.13;;;12.47;90.76
69257;BME280;56376;53.356;-1.748;2023-05-20T07:28:44;100820.19;;;12.55;90.57
69257;BME280;56376;53.356;-1.748;2023-05-20T07:31:11;100820.84;;;12.64;90.11
69257;BME280;56376;53.356;-1.748;2023-05-20T07:33:37;100823.19;;;12.74;90.63
69257;BME280;56376;53.356;-1.748;2023-05-20T07:36:02;100828.97;;;12.89;90.13
69257;BME280;56376;53.356;-1.748;2023-05-20T07:38:28;100831.28;;;13.01;90.69
69257;BME280;56376;53.356;-1.748;2023-05-20T07:40:53;100835.38;;;13.13;90.01
69257;BME280;56376;53.356;-1.748;2023-05-20T07:43:19;100829.84;;;13.22;88.67
69257;BME280;56376;53.356;-1.748;2023-05-20T07:45:44;100833.91;;;13.35;89.95
69257;BME280;56376;53.356;-1.748;2023-05-20T07:48:10;100830.16;;;13.46;86.05
69257;BME280;56376;53.356;-1.748;2023-05-20T07:50:37;100828.19;;;13.52;85.71
69257;BME280;56376;53.356;-1.748;2023-05-20T07:53:03;100825.44;;;13.57;85.30
69257;BME280;56376;53.356;-1.748;2023-05-20T07:55:29;100833.00;;;13.68;85.73
69257;BME280;56376;53.356;-1.748;2023-05-20T07:57:55;100826.59;;;13.78;86.47
69257;BME280;56376;53.356;-1.748;2023-05-20T08:00:20;100823.47;;;13.95;87.26
69257;BME280;56376;53.356;-1.748;2023-05-20T08:02:46;100824.88;;;14.06;85.12
69257;BME280;56376;53.356;-1.748;2023-05-20T08:05:11;100825.38;;;14.19;84.91
69257;BME280;56376;53.356;-1.748;2023-05-20T08:07:37;100816.34;;;14.28;84.17
69257;BME280;56376;53.356;-1.748;2023-05-20T08:10:02;100830.88;;;14.40;83.38
69257;BME280;56376;53.356;-1.748;2023-05-20T08:12:28;100827.88;;;14.50;82.22
69257;BME280;56376;53.356;-1.748;2023-05-20T08:14:53;100833.78;;;14.59;83.01
69257;BME280;56376;53.356;-1.748;2023-05-20T08:17:18;100825.56;;;14.69;81.54
69257;BME280;56376;53.356;-1.748;2023-05-20T08:19:44;100823.59;;;14.76;80.99
69257;BME280;56376;53.356;-1.748;2023-05-20T08:22:11;100823.44;;;14.81;82.16
69257;BME280;56376;53.356;-1.748;2023-05-20T08:24:37;100824.03;;;14.89;81.72
69257;BME280;56376;53.356;-1.748;2023-05-20T08:27:02;100816.84;;;14.94;80.85
69257;BME280;56376;53.356;-1.748;2023-05-20T08:29:29;100816.59;;;15.02;80.45
69257;BME280;56376;53.356;-1.748;2023-05-20T08:31:54;100819.84;;;15.10;79.92
69257;BME280;56376;53.356;-1.748;2023-05-20T08:34:20;100818.78;;;15.14;79.10
69257;BME280;56376;53.356;-1.748;2023-05-20T08:36:45;100809.09;;;15.16;79.47
69257;BME280;56376;53.356;-1.748;2023-05-20T08:39:11;100815.81;;;15.25;79.82
69257;BME280;56376;53.356;-1.748;2023-05-20T08:41:38;100807.84;;;15.26;78.21
69257;BME280;56376;53.356;-1.748;2023-05-20T08:44:04;100811.41;;;15.25;77.50
69257;BME280;56376;53.356;-1.748;2023-05-20T08:46:31;100805.88;;;15.33;77.96
69257;BME280;56376;53.356;-1.748;2023-05-20T08:48:58;100806.44;;;15.41;75.59
69257;BME280;56376;53.356;-1.748;2023-05-20T08:51:25;100804.50;;;15.46;74.03
69257;BME280;56376;53.356;-1.748;2023-05-20T08:53:51;100806.97;;;15.51;73.02
69257;BME280;56376;53.356;-1.748;2023-05-20T08:56:17;100807.91;;;15.50;71.06
69257;BME280;56376;53.356;-1.748;2023-05-20T08:58:43;100807.13;;;15.46;70.55
69257;BME280;56376;53.356;-1.748;2023-05-20T09:01:11;100805.19;;;15.51;71.29
69257;BME280;56376;53.356;-1.748;2023-05-20T09:03:36;100810.47;;;15.51;70.06
69257;BME280;56376;53.356;-1.748;2023-05-20T09:06:06;100804.34;;;15.51;69.85
69257;BME280;56376;53.356;-1.748;2023-05-20T09:08:32;100801.75;;;15.49;70.32
69257;BME280;56376;53.356;-1.748;2023-05-20T09:10:58;100807.81;;;15.51;70.14
69257;BME280;56376;53.356;-1.748;2023-05-20T09:13:24;100805.03;;;15.56;71.64
69257;BME280;56376;53.356;-1.748;2023-05-20T09:15:49;100789.97;;;15.59;69.94
69257;BME280;56376;53.356;-1.748;2023-05-20T09:18:15;100802.13;;;15.64;69.30
69257;BME280;56376;53.356;-1.748;2023-05-20T09:20:40;100803.81;;;15.65;68.68
69257;BME280;56376;53.356;-1.748;2023-05-20T09:23:08;100809.75;;;15.71;68.99
69257;BME280;56376;53.356;-1.748;2023-05-20T09:25:34;100797.28;;;15.76;70.25
69257;BME280;56376;53.356;-1.748;2023-05-20T09:28:01;100799.56;;;15.86;71.45
69257;BME280;56376;53.356;-1.748;2023-05-20T09:30:27;100798.31;;;15.96;70.56
69257;BME280;56376;53.356;-1.748;2023-05-20T09:32:54;100797.19;;;16.01;68.89
69257;BME280;56376;53.356;-1.748;2023-05-20T09:35:20;100797.06;;;16.05;67.68
69257;BME280;56376;53.356;-1.748;2023-05-20T09:37:46;100785.34;;;16.13;68.38
69257;BME280;56376;53.356;-1.748;2023-05-20T09:40:14;100786.56;;;16.27;69.20
69257;BME280;56376;53.356;-1.748;2023-05-20T09:42:55;100781.78;;;16.36;69.32
69257;BME280;56376;53.356;-1.748;2023-05-20T09:45:21;100780.22;;;16.53;69.46
69257;BME280;56376;53.356;-1.748;2023-05-20T09:47:49;100784.31;;;16.60;66.65
69257;BME280;56376;53.356;-1.748;2023-05-20T09:50:15;100786.78;;;16.64;64.68
69257;BME280;56376;53.356;-1.748;2023-05-20T09:52:42;100778.81;;;16.66;62.06
69257;BME280;56376;53.356;-1.748;2023-05-20T09:55:08;100783.81;;;16.72;62.52
69257;BME280;56376;53.356;-1.748;2023-05-20T09:57:37;100773.94;;;16.77;63.33
69257;BME280;56376;53.356;-1.748;2023-05-20T10:00:04;100763.06;;;16.85;63.36
69257;BME280;56376;53.356;-1.748;2023-05-20T10:02:31;100769.22;;;16.85;63.11
69257;BME280;56376;53.356;-1.748;2023-05-20T10:04:58;100759.41;;;16.89;63.65
69257;BME280;56376;53.356;-1.748;2023-05-20T10:07:34;100761.03;;;16.92;62.29
69257;BME280;56376;53.356;-1.748;2023-05-20T10:10:19;100768.03;;;16.93;60.19
69257;BME280;56376;53.356;-1.748;2023-05-20T10:16:16;100763.81;;;16.89;62.98
69257;BME280;56376;53.356;-1.748;2023-05-20T10:21:17;100776.53;;;16.99;63.36
69257;BME280;56376;53.356;-1.748;2023-05-20T10:23:43;100758.69;;;17.06;63.00
69257;BME280;56376;53.356;-1.748;2023-05-20T10:26:09;100757.34;;;17.16;62.64
69257;BME280;56376;53.356;-1.748;2023-05-20T10:28:36;100755.22;;;17.24;60.99
69257;BME280;56376;53.356;-1.748;2023-05-20T10:31:02;100751.38;;;17.32;59.92
69257;BME280;56376;53.356;-1.748;2023-05-20T10:33:28;100748.59;;;17.35;59.67
69257;BME280;56376;53.356;-1.748;2023-05-20T10:36:00;100755.47;;;17.39;60.42
69257;BME280;56376;53.356;-1.748;2023-05-20T10:38:27;100738.69;;;17.40;59.23
69257;BME280;56376;53.356;-1.748;2023-05-20T10:40:53;100733.75;;;17.32;59.19
69257;BME280;56376;53.356;-1.748;2023-05-20T10:43:25;100735.66;;;17.28;60.59
69257;BME280;56376;53.356;-1.748;2023-05-20T10:45:56;100726.88;;;17.28;61.36
69257;BME280;56376;53.356;-1.748;2023-05-20T10:50:56;100724.69;;;17.38;61.86
69257;BME280;56376;53.356;-1.748;2023-05-20T10:53:23;100724.41;;;17.44;61.80
69257;BME280;56376;53.356;-1.748;2023-05-20T10:55:50;100717.00;;;17.52;60.58
69257;BME280;56376;53.356;-1.748;2023-05-20T10:58:16;100721.19;;;17.56;60.24
69257;BME280;56376;53.356;-1.748;2023-05-20T11:00:44;100714.84;;;17.60;59.57
69257;BME280;56376;53.356;-1.748;2023-05-20T11:03:10;100718.34;;;17.61;59.21
69257;BME280;56376;53.356;-1.748;2023-05-20T11:05:38;100712.84;;;17.65;59.20
69257;BME280;56376;53.356;-1.748;2023-05-20T11:08:06;100715.41;;;17.67;59.10
69257;BME280;56376;53.356;-1.748;2023-05-20T11:10:35;100702.28;;;17.65;59.14
69257;BME280;56376;53.356;-1.748;2023-05-20T11:13:02;100700.25;;;17.70;60.81
69257;BME280;56376;53.356;-1.748;2023-05-20T11:15:28;100706.00;;;17.80;60.51
69257;BME280;56376;53.356;-1.748;2023-05-20T11:17:59;100701.06;;;17.91;61.18
69257;BME280;56376;53.356;-1.748;2023-05-20T11:20:25;100706.97;;;17.97;60.63
69257;BME280;56376;53.356;-1.748;2023-05-20T11:22:52;100705.97;;;17.99;61.11
69257;BME280;56376;53.356;-1.748;2023-05-20T11:25:18;100698.75;;;18.03;60.20
69257;BME280;56376;53.356;-1.748;2023-05-20T11:27:44;100698.69;;;18.04;58.91
69257;BME280;56376;53.356;-1.748;2023-05-20T11:30:13;100696.69;;;18.09;59.05
69257;BME280;56376;53.356;-1.748;2023-05-20T11:33:02;100695.59;;;18.13;57.44
69257;BME280;56376;53.356;-1.748;2023-05-20T11:35:30;100691.25;;;18.12;58.16
69257;BME280;56376;53.356;-1.748;2023-05-20T11:38:00;100683.22;;;18.14;59.34
69257;BME280;56376;53.356;-1.748;2023-05-20T11:40:26;100683.84;;;18.19;59.66
69257;BME280;56376;53.356;-1.748;2023-05-20T11:42:56;100684.63;;;18.21;59.79
69257;BME280;56376;53.356;-1.748;2023-05-20T11:45:22;100673.19;;;18.21;58.70
69257;BME280;56376;53.356;-1.748;2023-05-20T11:48:02;100677.25;;;18.28;58.66
69257;BME280;56376;53.356;-1.748;2023-05-20T11:50:32;100674.38;;;18.32;59.00
69257;BME280;56376;53.356;-1.748;2023-05-20T11:52:58;100675.00;;;18.37;57.88
69257;BME280;56376;53.356;-1.748;2023-05-20T11:55:25;100662.00;;;18.33;57.28
69257;BME280;56376;53.356;-1.748;2023-05-20T11:57:50;100681.00;;;18.41;58.67
69257;BME280;56376;53.356;-1.748;2023-05-20T12:00:16;100669.56;;;18.41;57.90
69257;BME280;56376;53.356;-1.748;2023-05-20T12:02:42;100665.91;;;18.43;58.91
69257;BME280;56376;53.356;-1.748;2023-05-20T12:05:07;100671.41;;;18.56;59.94
69257;BME280;56376;53.356;-1.748;2023-05-20T12:07:33;100662.41;;;18.60;57.33
69257;BME280;56376;53.356;-1.748;2023-05-20T12:09:58;100653.69;;;18.58;56.07
69257;BME280;56376;53.356;-1.748;2023-05-20T12:12:24;100659.66;;;18.62;56.35
69257;BME280;56376;53.356;-1.748;2023-05-20T12:14:49;100652.44;;;18.65;57.41
69257;BME280;56376;53.356;-1.748;2023-05-20T12:17:15;100651.09;;;18.74;60.01
69257;BME280;56376;53.356;-1.748;2023-05-20T12:19:40;100653.47;;;18.80;60.12
69257;BME280;56376;53.356;-1.748;2023-05-20T12:22:06;100660.81;;;18.91;59.29
69257;BME280;56376;53.356;-1.748;2023-05-20T12:24:31;100656.38;;;18.91;58.59
69257;BME280;56376;53.356;-1.748;2023-05-20T12:26:57;100644.50;;;18.83;61.09
69257;BME280;56376;53.356;-1.748;2023-05-20T12:29:22;100639.81;;;18.88;61.14
69257;BME280;56376;53.356;-1.748;2023-05-20T12:31:47;100634.25;;;18.92;60.94
69257;BME280;56376;53.356;-1.748;2023-05-20T12:34:13;100649.66;;;19.01;62.87
69257;BME280;56376;53.356;-1.748;2023-05-20T12:36:38;100642.31;;;19.07;58.75
69257;BME280;56376;53.356;-1.748;2023-05-20T12:39:04;100643.53;;;19.17;60.00
69257;BME280;56376;53.356;-1.748;2023-05-20T12:41:30;100643.81;;;19.28;58.53